sensor_id;sensor_type;location;lat;lon;timestamp;temperature;humidity
15997;DHT22;8103;51.340;12.326;2022-09-21T00:01:26;9.20;99.90
15997;DHT22;8103;51.340;12.326;2022-09-21T00:03:59;9.10;99.90
15997;DHT22;8103;51.340;12.326;2022-09-21T00:06:29;9.10;99.90
15997;DHT22;8103;51.340;12.326;2022-09-21T00:08:57;9.10;99.90
15997;DHT22;8103;51.340;12.326;2022-09-21T00:11:29;9.10;99.90
15997;DHT22;8103;51.340;12.326;2022-09-21T00:13:59;9.10;99.90
15997;DHT22;8103;51.340;12.326;2022-09-21T00:16:27;9.10;99.90
15997;DHT22;8103;51.340;12.326;2022-09-21T00:18:54;9.00;99.90
15997;DHT22;8103;51.340;12.326;2022-09-21T00:21:23;9.00;99.90
15997;DHT22;8103;51.340;12.326;2022-09-21T00:23:50;9.00;99.90
15997;DHT22;8103;51.340;12.326;2022-09-21T00:26:20;9.00;99.90
15997;DHT22;8103;51.340;12.326;2022-09-21T00:28:51;9.00;99.90
15997;DHT22;8103;51.340;12.326;2022-09-21T00:31:19;8.90;99.90
15997;DHT22;8103;51.340;12.326;2022-09-21T00:33:46;8.90;99.90
15997;DHT22;8103;51.340;12.326;2022-09-21T00:36:15;8.90;99.90
15997;DHT22;8103;51.340;12.326;2022-09-21T00:38:44;8.90;99.90
15997;DHT22;8103;51.340;12.326;2022-09-21T00:41:12;8.90;99.90
15997;DHT22;8103;51.340;12.326;2022-09-21T00:43:48;8.90;99.90
15997;DHT22;8103;51.340;12.326;2022-09-21T00:46:27;8.90;99.90
15997;DHT22;8103;51.340;12.326;2022-09-21T00:48:56;8.90;99.90
15997;DHT22;8103;51.340;12.326;2022-09-21T00:51:24;8.80;99.90
15997;DHT22;8103;51.340;12.326;2022-09-21T00:53:54;8.80;99.90
15997;DHT22;8103;51.340;12.326;2022-09-21T00:56:25;8.80;99.90
15997;DHT22;8103;51.340;12.326;2022-09-21T00:58:53;8.80;99.90
15997;DHT22;8103;51.340;12.326;2022-09-21T01:01:21;8.70;99.90
15997;DHT22;8103;51.340;12.326;2022-09-21T01:03:50;8.70;99.90
15997;DHT22;8103;51.340;12.326;2022-09-21T01:06:19;8.70;99.90
15997;DHT22;8103;51.340;12.326;2022-09-21T01:08:49;8.70;99.90
15997;DHT22;8103;51.340;12.326;2022-09-21T01:11:41;8.70;99.90
15997;DHT22;8103;51.340;12.326;2022-09-21T01:15:27;8.60;99.90
15997;DHT22;8103;51.340;12.326;2022-09-21T01:17:34;8.60;99.90
15997;DHT22;8103;51.340;12.326;2022-09-21T01:43:44;8.50;99.90
15997;DHT22;8103;51.340;12.326;2022-09-21T01:46:17;8.50;99.90
15997;DHT22;8103;51.340;12.326;2022-09-21T01:48:52;8.40;99.90
15997;DHT22;8103;51.340;12.326;2022-09-21T01:51:21;8.30;99.90
15997;DHT22;8103;51.340;12.326;2022-09-21T01:53:54;8.30;99.90
15997;DHT22;8103;51.340;12.326;2022-09-21T01:56:40;8.30;99.90
15997;DHT22;8103;51.340;12.326;2022-09-21T02:01:50;8.30;99.90
15997;DHT22;8103;51.340;12.326;2022-09-21T02:04:19;8.30;99.90
15997;DHT22;8103;51.340;12.326;2022-09-21T02:06:46;8.30;99.90
15997;DHT22;8103;51.340;12.326;2022-09-21T02:09:15;8.30;99.90
15997;DHT22;8103;51.340;12.326;2022-09-21T02:11:43;8.20;99.90
15997;DHT22;8103;51.340;12.326;2022-09-21T02:14:19;8.30;99.90
15997;DHT22;8103;51.340;12.326;2022-09-21T02:22:51;8.20;99.90
15997;DHT22;8103;51.340;12.326;2022-09-21T02:31:05;8.10;99.90
15997;DHT22;8103;51.340;12.326;2022-09-21T02:33:47;8.10;99.90
15997;DHT22;8103;51.340;12.326;2022-09-21T02:36:32;8.10;99.90
15997;DHT22;8103;51.340;12.326;2022-09-21T02:39:06;8.00;99.90
15997;DHT22;8103;51.340;12.326;2022-09-21T02:41:45;8.00;99.90
15997;DHT22;8103;51.340;12.326;2022-09-21T02:44:21;8.00;99.90
15997;DHT22;8103;51.340;12.326;2022-09-21T02:46:56;8.00;99.90
15997;DHT22;8103;51.340;12.326;2022-09-21T02:49:32;8.00;99.90
15997;DHT22;8103;51.340;12.326;2022-09-21T02:52:04;8.00;99.90
15997;DHT22;8103;51.340;12.326;2022-09-21T02:54:33;8.00;99.90
15997;DHT22;8103;51.340;12.326;2022-09-21T02:57:02;7.90;99.90
15997;DHT22;8103;51.340;12.326;2022-09-21T02:59:30;7.90;99.90
15997;DHT22;8103;51.340;12.326;2022-09-21T03:01:57;7.80;99.90
15997;DHT22;8103;51.340;12.326;2022-09-21T03:04:25;7.80;99.90
15997;DHT22;8103;51.340;12.326;2022-09-21T03:06:53;7.80;99.90
15997;DHT22;8103;51.340;12.326;2022-09-21T03:09:20;7.80;99.90
15997;DHT22;8103;51.340;12.326;2022-09-21T03:11:50;7.80;99.90
15997;DHT22;8103;51.340;12.326;2022-09-21T03:14:17;7.80;99.90
15997;DHT22;8103;51.340;12.326;2022-09-21T03:16:44;7.80;99.90
15997;DHT22;8103;51.340;12.326;2022-09-21T03:19:11;7.80;99.90
15997;DHT22;8103;51.340;12.326;2022-09-21T03:21:38;7.80;99.90
15997;DHT22;8103;51.340;12.326;2022-09-21T03:24:09;7.70;99.90
15997;DHT22;8103;51.340;12.326;2022-09-21T03:26:36;7.80;99.90
15997;DHT22;8103;51.340;12.326;2022-09-21T03:29:04;7.80;99.90
15997;DHT22;8103;51.340;12.326;2022-09-21T03:31:30;7.70;99.90
15997;DHT22;8103;51.340;12.326;2022-09-21T03:33:58;7.70;99.90
15997;DHT22;8103;51.340;12.326;2022-09-21T03:36:24;7.70;99.90
15997;DHT22;8103;51.340;12.326;2022-09-21T03:38:51;7.70;99.90
15997;DHT22;8103;51.340;12.326;2022-09-21T03:41:18;7.70;99.90
15997;DHT22;8103;51.340;12.326;2022-09-21T03:43:45;7.60;99.90
15997;DHT22;8103;51.340;12.326;2022-09-21T03:46:12;7.60;99.90
15997;DHT22;8103;51.340;12.326;2022-09-21T03:48:38;7.50;99.90
15997;DHT22;8103;51.340;12.326;2022-09-21T03:51:08;7.60;99.90
15997;DHT22;8103;51.340;12.326;2022-09-21T03:53:34;7.50;99.90
15997;DHT22;8103;51.340;12.326;2022-09-21T03:56:01;7.50;99.90
15997;DHT22;8103;51.340;12.326;2022-09-21T03:58:28;7.50;99.90
15997;DHT22;8103;51.340;12.326;2022-09-21T04:01:00;7.50;99.90
15997;DHT22;8103;51.340;12.326;2022-09-21T04:03:27;7.50;99.90
15997;DHT22;8103;51.340;12.326;2022-09-21T04:05:54;7.50;99.90
15997;DHT22;8103;51.340;12.326;2022-09-21T04:08:20;7.50;99.90
15997;DHT22;8103;51.340;12.326;2022-09-21T04:10:47;7.40;99.90
15997;DHT22;8103;51.340;12.326;2022-09-21T04:13:14;7.40;99.90
15997;DHT22;8103;51.340;12.326;2022-09-21T04:15:41;7.40;99.90
15997;DHT22;8103;51.340;12.326;2022-09-21T04:18:08;7.40;99.90
15997;DHT22;8103;51.340;12.326;2022-09-21T04:20:35;7.50;99.90
15997;DHT22;8103;51.340;12.326;2022-09-21T04:23:01;7.40;99.90
15997;DHT22;8103;51.340;12.326;2022-09-21T04:25:28;7.40;99.90
15997;DHT22;8103;51.340;12.326;2022-09-21T04:27:55;7.40;99.90
15997;DHT22;8103;51.340;12.326;2022-09-21T04:30:22;7.40;99.90
15997;DHT22;8103;51.340;12.326;2022-09-21T04:32:49;7.40;99.90
15997;DHT22;8103;51.340;12.326;2022-09-21T04:35:16;7.30;99.90
15997;DHT22;8103;51.340;12.326;2022-09-21T04:37:42;7.30;99.90
15997;DHT22;8103;51.340;12.326;2022-09-21T04:40:09;7.30;99.90
15997;DHT22;8103;51.340;12.326;2022-09-21T04:42:36;7.30;99.90
15997;DHT22;8103;51.340;12.326;2022-09-21T04:45:03;7.20;99.90
15997;DHT22;8103;51.340;12.326;2022-09-21T04:47:30;7.20;99.90
15997;DHT22;8103;51.340;12.326;2022-09-21T04:49:57;7.20;99.90
15997;DHT22;8103;51.340;12.326;2022-09-21T04:52:24;7.20;99.90
15997;DHT22;8103;51.340;12.326;2022-09-21T04:54:51;7.20;99.90
15997;DHT22;8103;51.340;12.326;2022-09-21T04:57:18;7.20;99.90
15997;DHT22;8103;51.340;12.326;2022-09-21T04:59:45;7.20;99.90
15997;DHT22;8103;51.340;12.326;2022-09-21T05:02:12;7.20;99.90
15997;DHT22;8103;51.340;12.326;2022-09-21T05:04:39;7.20;99.90
15997;DHT22;8103;51.340;12.326;2022-09-21T05:07:05;7.20;99.90
15997;DHT22;8103;51.340;12.326;2022-09-21T05:09:32;7.20;99.90
15997;DHT22;8103;51.340;12.326;2022-09-21T05:12:17;7.20;99.90
15997;DHT22;8103;51.340;12.326;2022-09-21T05:14:44;7.20;99.90
15997;DHT22;8103;51.340;12.326;2022-09-21T05:17:11;7.20;99.90
15997;DHT22;8103;51.340;12.326;2022-09-21T05:19:39;7.20;99.90
15997;DHT22;8103;51.340;12.326;2022-09-21T05:22:06;7.20;99.90
15997;DHT22;8103;51.340;12.326;2022-09-21T05:24:33;7.20;99.90
15997;DHT22;8103;51.340;12.326;2022-09-21T05:27:00;7.20;99.90
15997;DHT22;8103;51.340;12.326;2022-09-21T05:29:27;7.20;99.90
15997;DHT22;8103;51.340;12.326;2022-09-21T05:32:10;7.20;99.90
15997;DHT22;8103;51.340;12.326;2022-09-21T05:34:48;7.20;99.90
15997;DHT22;8103;51.340;12.326;2022-09-21T05:37:36;7.20;99.90
15997;DHT22;8103;51.340;12.326;2022-09-21T05:40:07;7.20;99.90
15997;DHT22;8103;51.340;12.326;2022-09-21T05:42:35;7.20;99.90
15997;DHT22;8103;51.340;12.326;2022-09-21T05:45:02;7.30;99.90
15997;DHT22;8103;51.340;12.326;2022-09-21T05:47:39;7.30;99.90
15997;DHT22;8103;51.340;12.326;2022-09-21T05:50:30;7.30;99.90
15997;DHT22;8103;51.340;12.326;2022-09-21T05:55:59;7.50;99.90
15997;DHT22;8103;51.340;12.326;2022-09-21T05:59:09;7.50;99.90
15997;DHT22;8103;51.340;12.326;2022-09-21T06:04:37;7.60;99.90
15997;DHT22;8103;51.340;12.326;2022-09-21T06:07:04;7.60;99.90
15997;DHT22;8103;51.340;12.326;2022-09-21T06:09:31;7.70;99.90
15997;DHT22;8103;51.340;12.326;2022-09-21T06:11:57;7.70;99.90
15997;DHT22;8103;51.340;12.326;2022-09-21T06:14:25;7.70;99.90
15997;DHT22;8103;51.340;12.326;2022-09-21T06:16:52;7.80;99.90
15997;DHT22;8103;51.340;12.326;2022-09-21T06:19:19;7.80;99.90
15997;DHT22;8103;51.340;12.326;2022-09-21T06:21:46;7.90;99.90
15997;DHT22;8103;51.340;12.326;2022-09-21T06:24:13;7.90;99.90
15997;DHT22;8103;51.340;12.326;2022-09-21T06:26:42;8.00;99.90
15997;DHT22;8103;51.340;12.326;2022-09-21T06:29:12;8.10;99.90
15997;DHT22;8103;51.340;12.326;2022-09-21T06:31:39;8.10;99.90
15997;DHT22;8103;51.340;12.326;2022-09-21T06:34:08;8.20;99.90
15997;DHT22;8103;51.340;12.326;2022-09-21T06:36:35;8.40;99.90
15997;DHT22;8103;51.340;12.326;2022-09-21T06:39:02;8.50;99.90
15997;DHT22;8103;51.340;12.326;2022-09-21T06:41:29;8.60;99.90
15997;DHT22;8103;51.340;12.326;2022-09-21T06:43:55;8.70;99.90
15997;DHT22;8103;51.340;12.326;2022-09-21T06:46:23;8.70;99.90
15997;DHT22;8103;51.340;12.326;2022-09-21T06:48:49;8.70;99.90
15997;DHT22;8103;51.340;12.326;2022-09-21T06:51:17;8.80;99.90
15997;DHT22;8103;51.340;12.326;2022-09-21T06:53:47;8.90;99.90
15997;DHT22;8103;51.340;12.326;2022-09-21T06:56:14;9.00;99.90
15997;DHT22;8103;51.340;12.326;2022-09-21T06:58:41;9.10;99.90
15997;DHT22;8103;51.340;12.326;2022-09-21T07:01:10;9.20;99.90
15997;DHT22;8103;51.340;12.326;2022-09-21T07:03:39;9.30;99.90
15997;DHT22;8103;51.340;12.326;2022-09-21T07:06:08;9.40;99.90
15997;DHT22;8103;51.340;12.326;2022-09-21T07:08:37;9.40;99.90
15997;DHT22;8103;51.340;12.326;2022-09-21T07:11:25;9.50;99.90
15997;DHT22;8103;51.340;12.326;2022-09-21T07:13:53;9.60;99.90
15997;DHT22;8103;51.340;12.326;2022-09-21T07:16:21;9.70;99.90
15997;DHT22;8103;51.340;12.326;2022-09-21T07:18:49;9.70;99.90
15997;DHT22;8103;51.340;12.326;2022-09-21T07:21:15;9.80;99.90
15997;DHT22;8103;51.340;12.326;2022-09-21T07:23:42;9.90;99.90
15997;DHT22;8103;51.340;12.326;2022-09-21T07:26:11;9.90;99.90
15997;DHT22;8103;51.340;12.326;2022-09-21T07:28:38;10.00;99.90
15997;DHT22;8103;51.340;12.326;2022-09-21T07:31:07;10.00;99.90
15997;DHT22;8103;51.340;12.326;2022-09-21T07:33:37;10.10;99.90
15997;DHT22;8103;51.340;12.326;2022-09-21T07:36:04;10.20;99.90
15997;DHT22;8103;51.340;12.326;2022-09-21T07:38:40;10.20;99.90
15997;DHT22;8103;51.340;12.326;2022-09-21T07:41:10;10.40;99.90
15997;DHT22;8103;51.340;12.326;2022-09-21T07:43:37;10.40;99.90
15997;DHT22;8103;51.340;12.326;2022-09-21T07:46:08;10.50;99.90
15997;DHT22;8103;51.340;12.326;2022-09-21T07:48:35;10.60;99.90
15997;DHT22;8103;51.340;12.326;2022-09-21T07:51:04;10.70;99.90
15997;DHT22;8103;51.340;12.326;2022-09-21T07:53:33;10.80;99.90
15997;DHT22;8103;51.340;12.326;2022-09-21T07:56:05;10.90;99.90
15997;DHT22;8103;51.340;12.326;2022-09-21T07:58:33;11.00;99.90
15997;DHT22;8103;51.340;12.326;2022-09-21T08:01:19;11.00;99.90
15997;DHT22;8103;51.340;12.326;2022-09-21T08:03:50;11.20;99.90
15997;DHT22;8103;51.340;12.326;2022-09-21T08:06:18;11.20;99.90
15997;DHT22;8103;51.340;12.326;2022-09-21T08:08:46;11.30;99.90
15997;DHT22;8103;51.340;12.326;2022-09-21T08:11:15;11.30;99.90
15997;DHT22;8103;51.340;12.326;2022-09-21T08:13:43;11.40;99.90
15997;DHT22;8103;51.340;12.326;2022-09-21T08:16:09;11.40;99.90
15997;DHT22;8103;51.340;12.326;2022-09-21T08:18:38;11.40;99.90
15997;DHT22;8103;51.340;12.326;2022-09-21T08:21:06;11.40;99.90
15997;DHT22;8103;51.340;12.326;2022-09-21T08:23:37;11.50;99.90
15997;DHT22;8103;51.340;12.326;2022-09-21T08:26:11;11.60;99.90
15997;DHT22;8103;51.340;12.326;2022-09-21T08:28:47;11.70;99.90
15997;DHT22;8103;51.340;12.326;2022-09-21T08:31:16;11.70;99.90
15997;DHT22;8103;51.340;12.326;2022-09-21T08:33:45;11.70;99.90
15997;DHT22;8103;51.340;12.326;2022-09-21T08:36:12;11.80;99.90
15997;DHT22;8103;51.340;12.326;2022-09-21T08:38:39;11.90;99.90
15997;DHT22;8103;51.340;12.326;2022-09-21T08:41:45;11.90;99.90
15997;DHT22;8103;51.340;12.326;2022-09-21T08:44:22;12.10;99.90
15997;DHT22;8103;51.340;12.326;2022-09-21T08:47:02;12.20;99.90
15997;DHT22;8103;51.340;12.326;2022-09-21T08:49:30;12.40;99.90
15997;DHT22;8103;51.340;12.326;2022-09-21T08:52:02;12.70;99.90
15997;DHT22;8103;51.340;12.326;2022-09-21T08:54:37;13.10;99.90
15997;DHT22;8103;51.340;12.326;2022-09-21T08:57:11;13.50;99.90
15997;DHT22;8103;51.340;12.326;2022-09-21T08:59:45;14.10;99.90
15997;DHT22;8103;51.340;12.326;2022-09-21T09:06:23;15.30;99.90
15997;DHT22;8103;51.340;12.326;2022-09-21T09:08:47;16.10;99.60
15997;DHT22;8103;51.340;12.326;2022-09-21T09:11:30;16.50;96.30
15997;DHT22;8103;51.340;12.326;2022-09-21T09:20:02;17.40;94.50
15997;DHT22;8103;51.340;12.326;2022-09-21T09:22:36;17.50;93.80
15997;DHT22;8103;51.340;12.326;2022-09-21T09:25:17;17.60;92.20
15997;DHT22;8103;51.340;12.326;2022-09-21T09:27:46;17.70;91.80
15997;DHT22;8103;51.340;12.326;2022-09-21T09:30:23;17.90;90.90
15997;DHT22;8103;51.340;12.326;2022-09-21T09:33:01;17.80;90.70
15997;DHT22;8103;51.340;12.326;2022-09-21T09:35:39;17.90;90.20
15997;DHT22;8103;51.340;12.326;2022-09-21T09:38:28;18.20;89.10
15997;DHT22;8103;51.340;12.326;2022-09-21T09:52:12;23.20;63.10
15997;DHT22;8103;51.340;12.326;2022-09-21T09:54:40;23.10;60.10
15997;DHT22;8103;51.340;12.326;2022-09-21T09:57:08;22.90;59.10
15997;DHT22;8103;51.340;12.326;2022-09-21T09:59:42;22.80;59.60
15997;DHT22;8103;51.340;12.326;2022-09-21T10:05:17;22.40;60.30
15997;DHT22;8103;51.340;12.326;2022-09-21T10:07:45;22.30;60.80
15997;DHT22;8103;51.340;12.326;2022-09-21T10:10:36;22.20;61.00
15997;DHT22;8103;51.340;12.326;2022-09-21T10:15:54;21.90;60.90
15997;DHT22;8103;51.340;12.326;2022-09-21T10:21:22;21.80;60.90
15997;DHT22;8103;51.340;12.326;2022-09-21T10:24:05;21.70;61.50
15997;DHT22;8103;51.340;12.326;2022-09-21T10:26:47;21.60;62.20
15997;DHT22;8103;51.340;12.326;2022-09-21T10:29:46;21.20;62.80
15997;DHT22;8103;51.340;12.326;2022-09-21T10:32:23;20.80;63.80
15997;DHT22;8103;51.340;12.326;2022-09-21T10:37:37;20.40;65.80
15997;DHT22;8103;51.340;12.326;2022-09-21T10:40:28;20.30;66.70
15997;DHT22;8103;51.340;12.326;2022-09-21T10:45:32;30.10;47.40
15997;DHT22;8103;51.340;12.326;2022-09-21T10:48:17;31.30;44.40
15997;DHT22;8103;51.340;12.326;2022-09-21T10:51:13;32.80;37.90
15997;DHT22;8103;51.340;12.326;2022-09-21T10:53:47;31.20;37.40
15997;DHT22;8103;51.340;12.326;2022-09-21T10:56:19;29.00;39.40
15997;DHT22;8103;51.340;12.326;2022-09-21T11:01:45;24.90;44.60
15997;DHT22;8103;51.340;12.326;2022-09-21T11:04:40;23.50;47.30
15997;DHT22;8103;51.340;12.326;2022-09-21T11:07:14;22.50;49.80
15997;DHT22;8103;51.340;12.326;2022-09-21T11:10:08;21.70;52.40
15997;DHT22;8103;51.340;12.326;2022-09-21T11:15:58;21.70;53.70
15997;DHT22;8103;51.340;12.326;2022-09-21T11:25:04;23.90;55.30
15997;DHT22;8103;51.340;12.326;2022-09-21T11:30:13;34.10;33.00
15997;DHT22;8103;51.340;12.326;2022-09-21T11:33:03;34.90;32.50
15997;DHT22;8103;51.340;12.326;2022-09-21T11:41:35;36.10;28.60
15997;DHT22;8103;51.340;12.326;2022-09-21T11:49:54;32.20;31.90
15997;DHT22;8103;51.340;12.326;2022-09-21T11:53:14;29.90;34.50
15997;DHT22;8103;51.340;12.326;2022-09-21T11:58:51;25.80;40.60
15997;DHT22;8103;51.340;12.326;2022-09-21T12:04:10;23.10;45.30
15997;DHT22;8103;51.340;12.326;2022-09-21T12:09:38;25.30;46.50
15997;DHT22;8103;51.340;12.326;2022-09-21T12:12:38;29.40;39.60
15997;DHT22;8103;51.340;12.326;2022-09-21T12:18:17;34.70;28.40
15997;DHT22;8103;51.340;12.326;2022-09-21T12:21:07;35.00;28.10
15997;DHT22;8103;51.340;12.326;2022-09-21T12:23:56;35.80;27.90
15997;DHT22;8103;51.340;12.326;2022-09-21T12:26:27;37.10;27.00
15997;DHT22;8103;51.340;12.326;2022-09-21T12:31:54;38.60;25.20
15997;DHT22;8103;51.340;12.326;2022-09-21T12:34:30;38.30;25.50
15997;DHT22;8103;51.340;12.326;2022-09-21T12:39:53;33.60;28.60
15997;DHT22;8103;51.340;12.326;2022-09-21T12:42:33;30.50;31.50
15997;DHT22;8103;51.340;12.326;2022-09-21T12:45:20;28.00;34.80
15997;DHT22;8103;51.340;12.326;2022-09-21T12:47:56;26.10;38.20
15997;DHT22;8103;51.340;12.326;2022-09-21T12:50:36;24.80;41.00
15997;DHT22;8103;51.340;12.326;2022-09-21T12:53:20;25.00;42.90
15997;DHT22;8103;51.340;12.326;2022-09-21T12:56:04;28.10;41.20
15997;DHT22;8103;51.340;12.326;2022-09-21T12:58:44;31.70;33.90
15997;DHT22;8103;51.340;12.326;2022-09-21T13:01:47;34.60;29.00
15997;DHT22;8103;51.340;12.326;2022-09-21T13:09:49;39.80;24.70
15997;DHT22;8103;51.340;12.326;2022-09-21T13:12:19;41.10;32.60
15997;DHT22;8103;51.340;12.326;2022-09-21T13:14:50;41.70;23.10
15997;DHT22;8103;51.340;12.326;2022-09-21T13:17:24;42.60;42.80
15997;DHT22;8103;51.340;12.326;2022-09-21T13:20:04;42.20;22.00
15997;DHT22;8103;51.340;12.326;2022-09-21T13:22:34;42.20;21.80
15997;DHT22;8103;51.340;12.326;2022-09-21T13:30:43;41.00;21.50
15997;DHT22;8103;51.340;12.326;2022-09-21T13:38:25;32.30;27.20
15997;DHT22;8103;51.340;12.326;2022-09-21T13:40:59;30.20;30.00
15997;DHT22;8103;51.340;12.326;2022-09-21T13:49:16;25.70;38.00
15997;DHT22;8103;51.340;12.326;2022-09-21T13:54:30;24.00;41.60
15997;DHT22;8103;51.340;12.326;2022-09-21T13:57:27;23.40;43.80
15997;DHT22;8103;51.340;12.326;2022-09-21T14:00:29;22.80;45.90
15997;DHT22;8103;51.340;12.326;2022-09-21T14:03:00;22.20;50.50
15997;DHT22;8103;51.340;12.326;2022-09-21T14:05:44;21.80;48.60
15997;DHT22;8103;51.340;12.326;2022-09-21T14:10:57;22.40;50.60
15997;DHT22;8103;51.340;12.326;2022-09-21T14:13:36;25.50;46.20
15997;DHT22;8103;51.340;12.326;2022-09-21T14:24:35;25.60;39.50
15997;DHT22;8103;51.340;12.326;2022-09-21T14:27:29;24.40;41.80
15997;DHT22;8103;51.340;12.326;2022-09-21T14:32:40;22.40;45.60
15997;DHT22;8103;51.340;12.326;2022-09-21T14:35:18;21.90;46.90
15997;DHT22;8103;51.340;12.326;2022-09-21T14:37:51;21.40;48.10
15997;DHT22;8103;51.340;12.326;2022-09-21T14:40:29;21.10;48.80
15997;DHT22;8103;51.340;12.326;2022-09-21T14:42:59;20.90;49.70
15997;DHT22;8103;51.340;12.326;2022-09-21T14:46:07;20.70;50.00
15997;DHT22;8103;51.340;12.326;2022-09-21T14:51:42;20.20;50.60
15997;DHT22;8103;51.340;12.326;2022-09-21T15:04:50;19.80;52.10
15997;DHT22;8103;51.340;12.326;2022-09-21T15:07:52;19.60;51.40
15997;DHT22;8103;51.340;12.326;2022-09-21T15:16:25;18.90;52.50
15997;DHT22;8103;51.340;12.326;2022-09-21T15:21:49;18.70;54.00
15997;DHT22;8103;51.340;12.326;2022-09-21T15:24:24;18.60;54.20
15997;DHT22;8103;51.340;12.326;2022-09-21T15:26:55;18.50;54.40
15997;DHT22;8103;51.340;12.326;2022-09-21T15:29:29;18.50;54.60
15997;DHT22;8103;51.340;12.326;2022-09-21T15:31:59;18.40;54.80
15997;DHT22;8103;51.340;12.326;2022-09-21T15:34:26;18.40;55.70
15997;DHT22;8103;51.340;12.326;2022-09-21T15:37:05;18.40;56.10
15997;DHT22;8103;51.340;12.326;2022-09-21T15:39:33;18.50;56.60
15997;DHT22;8103;51.340;12.326;2022-09-21T15:44:37;18.70;57.10
15997;DHT22;8103;51.340;12.326;2022-09-21T15:47:10;18.90;56.90
15997;DHT22;8103;51.340;12.326;2022-09-21T15:49:39;19.00;56.60
15997;DHT22;8103;51.340;12.326;2022-09-21T15:52:20;19.10;56.40
15997;DHT22;8103;51.340;12.326;2022-09-21T15:54:53;19.10;56.20
15997;DHT22;8103;51.340;12.326;2022-09-21T15:57:34;19.20;56.10
15997;DHT22;8103;51.340;12.326;2022-09-21T16:00:28;19.10;55.90
15997;DHT22;8103;51.340;12.326;2022-09-21T16:03:04;19.00;55.90
15997;DHT22;8103;51.340;12.326;2022-09-21T16:05:47;18.90;55.50
15997;DHT22;8103;51.340;12.326;2022-09-21T16:08:35;18.90;55.30
15997;DHT22;8103;51.340;12.326;2022-09-21T16:14:15;18.80;55.30
15997;DHT22;8103;51.340;12.326;2022-09-21T16:22:40;18.30;56.20
15997;DHT22;8103;51.340;12.326;2022-09-21T16:28:02;18.00;57.40
15997;DHT22;8103;51.340;12.326;2022-09-21T16:30:46;17.90;57.70
15997;DHT22;8103;51.340;12.326;2022-09-21T16:36:10;17.60;59.40
15997;DHT22;8103;51.340;12.326;2022-09-21T16:38:52;17.50;59.50
15997;DHT22;8103;51.340;12.326;2022-09-21T16:41:20;17.40;59.60
15997;DHT22;8103;51.340;12.326;2022-09-21T16:43:48;17.40;59.90
15997;DHT22;8103;51.340;12.326;2022-09-21T16:46:18;17.20;60.40
15997;DHT22;8103;51.340;12.326;2022-09-21T16:48:47;17.10;61.00
15997;DHT22;8103;51.340;12.326;2022-09-21T16:51:15;17.00;62.30
15997;DHT22;8103;51.340;12.326;2022-09-21T16:53:50;16.90;63.70
15997;DHT22;8103;51.340;12.326;2022-09-21T16:56:17;16.70;64.00
15997;DHT22;8103;51.340;12.326;2022-09-21T16:58:44;16.60;64.80
15997;DHT22;8103;51.340;12.326;2022-09-21T17:01:16;16.40;65.50
15997;DHT22;8103;51.340;12.326;2022-09-21T17:03:47;16.30;66.10
15997;DHT22;8103;51.340;12.326;2022-09-21T17:06:14;16.10;66.90
15997;DHT22;8103;51.340;12.326;2022-09-21T17:08:43;16.10;69.40
15997;DHT22;8103;51.340;12.326;2022-09-21T17:11:14;16.00;69.50
15997;DHT22;8103;51.340;12.326;2022-09-21T17:13:48;15.80;71.20
15997;DHT22;8103;51.340;12.326;2022-09-21T17:16:17;15.70;71.90
15997;DHT22;8103;51.340;12.326;2022-09-21T17:18:45;15.60;72.90
15997;DHT22;8103;51.340;12.326;2022-09-21T17:21:14;15.50;72.80
15997;DHT22;8103;51.340;12.326;2022-09-21T17:23:42;15.40;73.60
15997;DHT22;8103;51.340;12.326;2022-09-21T17:26:12;15.30;74.40
15997;DHT22;8103;51.340;12.326;2022-09-21T17:28:43;15.30;75.70
15997;DHT22;8103;51.340;12.326;2022-09-21T17:31:11;15.20;75.90
15997;DHT22;8103;51.340;12.326;2022-09-21T17:33:39;15.10;76.30
15997;DHT22;8103;51.340;12.326;2022-09-21T17:36:17;15.10;76.50
15997;DHT22;8103;51.340;12.326;2022-09-21T17:38:44;15.10;76.80
15997;DHT22;8103;51.340;12.326;2022-09-21T17:41:24;15.10;78.40
15997;DHT22;8103;51.340;12.326;2022-09-21T17:49:04;15.00;79.40
15997;DHT22;8103;51.340;12.326;2022-09-21T17:51:31;14.90;79.60
15997;DHT22;8103;51.340;12.326;2022-09-21T17:54:16;14.90;80.70
15997;DHT22;8103;51.340;12.326;2022-09-21T17:56:53;14.90;81.60
15997;DHT22;8103;51.340;12.326;2022-09-21T17:59:31;14.80;82.30
15997;DHT22;8103;51.340;12.326;2022-09-21T18:02:20;14.80;83.00
15997;DHT22;8103;51.340;12.326;2022-09-21T18:04:50;14.70;83.70
15997;DHT22;8103;51.340;12.326;2022-09-21T18:07:20;14.60;83.80
15997;DHT22;8103;51.340;12.326;2022-09-21T18:09:47;14.50;84.50
15997;DHT22;8103;51.340;12.326;2022-09-21T18:12:51;14.40;85.60
15997;DHT22;8103;51.340;12.326;2022-09-21T18:21:17;14.10;89.20
15997;DHT22;8103;51.340;12.326;2022-09-21T18:23:56;14.10;90.40
15997;DHT22;8103;51.340;12.326;2022-09-21T18:26:26;14.00;90.60
15997;DHT22;8103;51.340;12.326;2022-09-21T18:28:53;13.90;91.00
15997;DHT22;8103;51.340;12.326;2022-09-21T18:40:27;13.70;93.40
15997;DHT22;8103;51.340;12.326;2022-09-21T18:46:04;13.50;94.40
15997;DHT22;8103;51.340;12.326;2022-09-21T18:53:56;13.40;96.10
15997;DHT22;8103;51.340;12.326;2022-09-21T18:56:25;13.40;96.50
15997;DHT22;8103;51.340;12.326;2022-09-21T18:58:53;13.30;97.20
15997;DHT22;8103;51.340;12.326;2022-09-21T19:01:22;13.30;98.20
15997;DHT22;8103;51.340;12.326;2022-09-21T19:03:50;13.20;98.20
15997;DHT22;8103;51.340;12.326;2022-09-21T19:06:33;13.20;98.30
15997;DHT22;8103;51.340;12.326;2022-09-21T19:23:27;12.90;99.90
15997;DHT22;8103;51.340;12.326;2022-09-21T19:26:12;12.90;99.90
15997;DHT22;8103;51.340;12.326;2022-09-21T19:31:27;12.80;99.90
15997;DHT22;8103;51.340;12.326;2022-09-21T19:33:55;12.80;99.90
15997;DHT22;8103;51.340;12.326;2022-09-21T19:36:22;12.70;99.90
15997;DHT22;8103;51.340;12.326;2022-09-21T19:38:49;12.70;99.90
15997;DHT22;8103;51.340;12.326;2022-09-21T19:49:52;12.40;99.90
15997;DHT22;8103;51.340;12.326;2022-09-21T19:52:33;12.40;99.90
15997;DHT22;8103;51.340;12.326;2022-09-21T19:55:01;12.30;99.90
15997;DHT22;8103;51.340;12.326;2022-09-21T19:57:46;12.20;99.90
15997;DHT22;8103;51.340;12.326;2022-09-21T20:00:32;12.20;99.90
15997;DHT22;8103;51.340;12.326;2022-09-21T20:03:04;12.10;99.90
15997;DHT22;8103;51.340;12.326;2022-09-21T20:05:48;12.10;99.90
15997;DHT22;8103;51.340;12.326;2022-09-21T20:16:58;11.90;99.90
15997;DHT22;8103;51.340;12.326;2022-09-21T20:19:47;11.80;99.90
15997;DHT22;8103;51.340;12.326;2022-09-21T20:22:17;11.80;99.90
15997;DHT22;8103;51.340;12.326;2022-09-21T20:27:38;11.70;99.90
15997;DHT22;8103;51.340;12.326;2022-09-21T20:30:17;11.70;99.90
15997;DHT22;8103;51.340;12.326;2022-09-21T20:32:47;11.60;99.90
15997;DHT22;8103;51.340;12.326;2022-09-21T20:35:20;11.60;99.90
15997;DHT22;8103;51.340;12.326;2022-09-21T20:37:48;11.60;99.90
15997;DHT22;8103;51.340;12.326;2022-09-21T20:40:17;11.50;99.90
15997;DHT22;8103;51.340;12.326;2022-09-21T20:42:45;11.50;99.90